createdAt,value
2022-10-18T00:00:04.130Z,20.9
2022-10-18T00:02:02.278Z,19.5
2022-10-18T00:04:02.579Z,24.0
2022-10-18T00:06:03.240Z,22.0
2022-10-18T00:08:02.960Z,22.9
2022-10-18T00:10:02.971Z,19.8
2022-10-18T00:12:02.338Z,25.6
2022-10-18T00:14:02.739Z,25.6
2022-10-18T00:16:09.914Z,25.2
2022-10-18T00:18:02.976Z,23.6
2022-10-18T00:20:02.429Z,24.2
2022-10-18T00:22:02.236Z,24.7
2022-10-18T00:24:02.513Z,22.8
2022-10-18T00:26:05.711Z,23.8
2022-10-18T00:28:02.607Z,24.3
2022-10-18T00:30:02.292Z,24.7
2022-10-18T00:32:02.244Z,25.3
2022-10-18T00:34:05.145Z,24.6
2022-10-18T00:36:02.222Z,26.9
2022-10-18T00:38:02.443Z,26.8
2022-10-18T00:40:02.787Z,28.1
2022-10-18T00:42:03.028Z,26.1
2022-10-18T00:44:04.917Z,28.2
2022-10-18T00:46:02.183Z,25.0
2022-10-18T00:48:05.040Z,27.3
2022-10-18T00:50:04.562Z,25.4
2022-10-18T00:52:05.852Z,24.9
2022-10-18T00:54:02.907Z,30.2
2022-10-18T00:56:02.401Z,27.4
2022-10-18T00:58:04.344Z,26.7
2022-10-18T01:00:07.030Z,34.1
2022-10-18T01:02:03.508Z,28.8
2022-10-18T01:04:02.575Z,27.8
2022-10-18T01:06:02.292Z,28.1
2022-10-18T01:08:15.173Z,26.4
2022-10-18T01:10:13.262Z,23.6
2022-10-18T01:12:13.073Z,24.4
2022-10-18T01:14:15.174Z,24.0
2022-10-18T01:16:10.360Z,28.7
2022-10-18T01:18:09.553Z,27.3
2022-10-18T01:20:19.145Z,25.6
2022-10-18T01:22:09.308Z,30.8
2022-10-18T01:24:19.198Z,28.6
2022-10-18T01:26:17.278Z,27.0
2022-10-18T01:28:13.368Z,29.4
2022-10-18T01:30:20.747Z,31.5
2022-10-18T01:32:06.921Z,27.2
2022-10-18T01:34:05.731Z,31.2
2022-10-18T01:36:09.836Z,31.1
2022-10-18T01:38:11.014Z,28.4
2022-10-18T01:40:06.390Z,23.0
2022-10-18T01:42:06.507Z,28.1
2022-10-18T01:44:06.190Z,23.6
2022-10-18T01:46:04.673Z,23.3
2022-10-18T01:48:03.127Z,25.2
2022-10-18T01:50:05.684Z,26.1
2022-10-18T01:52:02.402Z,24.0
2022-10-18T01:54:03.275Z,26.6
2022-10-18T01:56:16.927Z,24.3
2022-10-18T01:58:09.132Z,23.3
2022-10-18T02:00:09.653Z,23.7
2022-10-18T02:02:12.564Z,25.0
2022-10-18T02:04:12.218Z,25.5
2022-10-18T02:06:08.461Z,26.9
2022-10-18T02:10:10.299Z,26.7
2022-10-18T02:12:04.059Z,27.5
2022-10-18T02:14:08.780Z,23.6
2022-10-18T02:16:08.494Z,23.0
2022-10-18T02:18:06.375Z,24.6
2022-10-18T02:20:05.700Z,26.2
2022-10-18T02:22:03.911Z,24.9
2022-10-18T02:24:03.893Z,23.8
2022-10-18T02:26:02.342Z,29.2
2022-10-18T02:28:03.784Z,27.6
2022-10-18T02:30:03.998Z,29.1
2022-10-18T02:32:09.260Z,24.0
2022-10-18T02:34:07.830Z,25.3
2022-10-18T02:36:09.561Z,27.6
2022-10-18T02:38:04.585Z,24.3
2022-10-18T02:40:05.270Z,25.5
2022-10-18T02:42:06.384Z,29.8
2022-10-18T02:44:02.463Z,24.3
2022-10-18T02:46:03.345Z,25.7
2022-10-18T02:48:02.205Z,25.5
2022-10-18T02:50:02.482Z,25.5
2022-10-18T02:52:02.263Z,24.3
2022-10-18T02:54:02.214Z,25.4
2022-10-18T02:56:03.124Z,27.3
2022-10-18T02:58:02.730Z,28.8
2022-10-18T03:00:03.061Z,25.4
2022-10-18T03:02:02.837Z,27.7
2022-10-18T03:04:03.281Z,26.4
2022-10-18T03:06:02.190Z,24.8
2022-10-18T03:08:02.415Z,25.1
2022-10-18T03:10:02.207Z,26.6
2022-10-18T03:12:03.400Z,26.6
2022-10-18T03:14:02.286Z,26.5
2022-10-18T03:16:02.333Z,26.5
2022-10-18T03:18:02.195Z,25.1
2022-10-18T03:20:02.431Z,25.6
2022-10-18T03:22:02.214Z,23.7
2022-10-18T03:24:03.089Z,26.7
2022-10-18T03:26:02.611Z,29.0
2022-10-18T03:28:02.855Z,24.4
2022-10-18T03:30:02.367Z,26.5
2022-10-18T03:32:02.416Z,26.9
2022-10-18T03:34:02.792Z,25.3
2022-10-18T03:36:02.357Z,23.7
2022-10-18T03:38:02.270Z,22.8
2022-10-18T03:40:02.366Z,25.3
2022-10-18T03:42:02.156Z,29.5
2022-10-18T03:44:03.296Z,25.5
2022-10-18T03:46:02.189Z,27.4
2022-10-18T03:48:02.941Z,29.1
2022-10-18T03:50:02.229Z,28.3
2022-10-18T03:52:02.161Z,25.0
2022-10-18T03:54:02.316Z,25.5
2022-10-18T03:56:03.070Z,30.0
2022-10-18T03:58:02.192Z,28.0
2022-10-18T04:00:03.902Z,23.6
2022-10-18T04:02:02.287Z,25.2
2022-10-18T04:04:02.236Z,27.9
2022-10-18T04:06:03.215Z,25.1
2022-10-18T04:08:03.464Z,24.7
2022-10-18T04:10:02.775Z,26.4
2022-10-18T04:12:02.375Z,25.8
2022-10-18T04:14:02.951Z,25.6
2022-10-18T04:16:02.201Z,25.4
2022-10-18T04:18:02.478Z,27.0
2022-10-18T04:20:02.469Z,25.8
2022-10-18T04:22:02.238Z,24.3
2022-10-18T04:24:02.376Z,26.8
2022-10-18T04:26:02.224Z,24.5
2022-10-18T04:28:04.282Z,27.7
2022-10-18T04:30:02.220Z,26.4
2022-10-18T04:32:02.496Z,24.8
2022-10-18T04:34:03.858Z,26.5
2022-10-18T04:36:02.525Z,24.4
2022-10-18T04:38:02.237Z,27.8
2022-10-18T04:40:03.387Z,28.3
2022-10-18T04:42:02.180Z,28.3
2022-10-18T04:44:02.466Z,24.8
2022-10-18T04:46:02.181Z,24.5
2022-10-18T04:48:02.694Z,24.9
2022-10-18T04:50:03.441Z,24.0
2022-10-18T04:52:02.757Z,27.3
2022-10-18T04:54:02.165Z,24.6
2022-10-18T04:56:03.018Z,24.3
2022-10-18T04:58:02.753Z,24.7
2022-10-18T05:00:03.672Z,22.9
2022-10-18T05:04:02.180Z,24.2
2022-10-18T05:06:03.627Z,23.7
2022-10-18T05:08:02.500Z,26.7
2022-10-18T05:10:02.249Z,29.7
2022-10-18T05:12:02.200Z,26.0
2022-10-18T05:14:02.422Z,29.3
2022-10-18T05:16:02.218Z,28.0
2022-10-18T05:18:02.153Z,23.2
2022-10-18T05:20:03.234Z,26.5
2022-10-18T05:22:02.284Z,31.3
2022-10-18T05:24:02.312Z,26.4
2022-10-18T05:26:04.987Z,26.9
2022-10-18T05:28:10.505Z,25.9
2022-10-18T05:30:05.678Z,26.8
2022-10-18T05:32:02.806Z,24.6
2022-10-18T05:34:03.070Z,28.4
2022-10-18T05:36:03.577Z,25.8
2022-10-18T05:38:04.313Z,28.8
2022-10-18T05:40:02.250Z,30.2
2022-10-18T05:42:02.432Z,29.5
2022-10-18T05:44:04.712Z,26.7
2022-10-18T05:46:02.453Z,29.7
2022-10-18T05:48:02.198Z,28.8
2022-10-18T05:50:02.922Z,28.3
2022-10-18T05:52:02.252Z,26.5
2022-10-18T05:54:02.440Z,25.9
2022-10-18T05:56:03.818Z,29.4
2022-10-18T05:58:03.680Z,30.3
2022-10-18T06:00:02.396Z,31.7
2022-10-18T06:02:03.255Z,26.1
2022-10-18T06:04:02.544Z,26.4
2022-10-18T06:06:03.340Z,28.3
2022-10-18T06:08:04.233Z,26.2
2022-10-18T06:10:02.182Z,32.4
2022-10-18T06:12:02.242Z,26.9
2022-10-18T06:14:02.845Z,27.8
2022-10-18T06:16:02.763Z,32.2
2022-10-18T06:18:02.385Z,28.3
2022-10-18T06:20:02.389Z,29.7
2022-10-18T06:22:02.171Z,27.9
2022-10-18T06:24:02.217Z,28.3
2022-10-18T06:26:05.636Z,28.7
2022-10-18T06:28:05.196Z,28.1
2022-10-18T06:30:02.877Z,25.4
2022-10-18T06:32:02.713Z,28.9
2022-10-18T06:34:02.397Z,30.3
2022-10-18T06:36:04.804Z,28.4
2022-10-18T06:38:02.370Z,26.6
2022-10-18T06:40:02.997Z,31.2
2022-10-18T06:42:02.215Z,27.3
2022-10-18T06:44:11.990Z,27.7
2022-10-18T06:46:06.291Z,27.1
2022-10-18T06:48:02.281Z,26.1
2022-10-18T06:50:02.450Z,31.1
2022-10-18T06:52:02.437Z,27.6
2022-10-18T06:54:17.334Z,25.2
2022-10-18T06:56:05.076Z,25.2
2022-10-18T06:58:03.111Z,27.4
2022-10-18T07:00:04.496Z,31.4
2022-10-18T07:02:02.282Z,26.2
2022-10-18T07:04:02.421Z,27.9
2022-10-18T07:06:02.608Z,26.2
2022-10-18T07:08:02.474Z,27.7
2022-10-18T07:10:02.285Z,28.8
2022-10-18T07:12:02.417Z,27.8
2022-10-18T07:14:04.568Z,29.9
2022-10-18T07:16:05.553Z,33.6
2022-10-18T07:18:02.172Z,32.5
2022-10-18T07:20:03.944Z,29.5
2022-10-18T07:22:02.156Z,35.7
2022-10-18T07:24:02.155Z,32.2
2022-10-18T07:26:04.001Z,29.2
2022-10-18T07:28:03.212Z,30.8
2022-10-18T07:30:02.175Z,30.9
2022-10-18T07:32:02.440Z,28.0
2022-10-18T07:34:03.843Z,31.7
2022-10-18T07:36:02.935Z,30.1
2022-10-18T07:38:02.209Z,30.1
2022-10-18T07:40:02.277Z,33.7
2022-10-18T07:42:02.194Z,29.6
2022-10-18T07:44:03.627Z,31.0
2022-10-18T07:46:04.137Z,29.1
2022-10-18T07:48:02.221Z,34.4
2022-10-18T07:50:02.352Z,33.5
2022-10-18T07:52:02.823Z,33.9
2022-10-18T07:54:03.178Z,29.7
2022-10-18T07:56:08.571Z,33.8
2022-10-18T07:58:02.219Z,32.2
2022-10-18T08:00:02.526Z,36.7
2022-10-18T08:02:02.946Z,42.5
2022-10-18T08:04:07.160Z,46.9
2022-10-18T08:06:03.178Z,61.1
2022-10-18T08:08:05.760Z,69.0
2022-10-18T08:10:02.177Z,60.9
2022-10-18T08:12:02.357Z,57.5
2022-10-18T08:14:02.296Z,56.2
2022-10-18T08:16:03.737Z,53.5
2022-10-18T08:18:02.194Z,56.1
2022-10-18T08:20:12.181Z,60.8
2022-10-18T08:22:02.193Z,55.0
2022-10-18T08:24:02.217Z,56.9
2022-10-18T08:26:04.386Z,54.4
2022-10-18T08:28:02.173Z,48.9
2022-10-18T08:30:02.211Z,52.4
2022-10-18T08:32:02.462Z,56.5
2022-10-18T08:34:02.174Z,49.8
2022-10-18T08:36:05.552Z,52.6
2022-10-18T08:38:02.376Z,83.2
2022-10-18T08:40:02.781Z,76.6
2022-10-18T08:42:18.376Z,69.6
2022-10-18T08:44:09.089Z,83.0
2022-10-18T08:46:02.847Z,81.7
2022-10-18T08:48:04.687Z,91.3
2022-10-18T08:50:05.979Z,105.3
2022-10-18T08:52:04.161Z,109.8
2022-10-18T08:54:11.276Z,111.3
2022-10-18T08:56:10.789Z,113.7
2022-10-18T08:58:02.789Z,108.7
2022-10-18T09:00:08.104Z,115.0
2022-10-18T09:02:17.066Z,104.0
2022-10-18T09:04:16.404Z,105.6
2022-10-18T09:06:12.810Z,103.8
2022-10-18T09:08:21.243Z,113.1
2022-10-18T09:10:09.520Z,101.5
2022-10-18T09:12:16.722Z,93.7
2022-10-18T09:14:19.810Z,92.9
2022-10-18T09:16:04.483Z,85.4
2022-10-18T09:18:14.311Z,90.1
2022-10-18T09:20:12.064Z,84.6
2022-10-18T09:22:12.639Z,91.7
2022-10-18T09:24:11.969Z,89.4
2022-10-18T09:26:10.099Z,90.5
2022-10-18T09:28:14.413Z,92.8
2022-10-18T09:30:13.526Z,90.9
2022-10-18T09:32:14.300Z,92.0
2022-10-18T09:34:09.220Z,90.5
2022-10-18T09:36:05.003Z,90.5
2022-10-18T09:38:05.068Z,96.0
2022-10-18T09:40:18.077Z,95.7
2022-10-18T09:42:07.442Z,95.7
2022-10-18T09:44:06.599Z,98.6
2022-10-18T09:46:04.458Z,100.2
2022-10-18T09:48:10.353Z,93.8
2022-10-18T09:50:13.504Z,95.2
2022-10-18T09:52:09.277Z,92.6
2022-10-18T09:54:17.494Z,89.3
2022-10-18T09:56:05.870Z,89.3
2022-10-18T09:58:06.810Z,87.2
2022-10-18T10:00:04.848Z,82.6
2022-10-18T10:02:03.355Z,81.2
2022-10-18T10:04:02.424Z,89.0
2022-10-18T10:06:14.417Z,88.3
2022-10-18T10:08:02.825Z,82.4
2022-10-18T10:10:08.728Z,83.3
2022-10-18T10:12:02.886Z,83.1
2022-10-18T10:14:10.611Z,80.5
2022-10-18T10:16:03.802Z,71.7
2022-10-18T10:18:06.017Z,71.0
2022-10-18T10:20:13.970Z,71.1
2022-10-18T10:22:07.184Z,74.9
2022-10-18T10:24:03.849Z,74.1
2022-10-18T10:26:04.970Z,66.3
2022-10-18T10:28:05.246Z,67.7
2022-10-18T10:30:07.233Z,65.8
2022-10-18T10:32:04.377Z,65.8
2022-10-18T10:34:04.530Z,63.6
2022-10-18T10:36:06.537Z,67.3
2022-10-18T10:38:03.774Z,63.8
2022-10-18T10:40:18.426Z,65.1
2022-10-18T10:42:03.554Z,67.1
2022-10-18T10:44:06.011Z,65.1
2022-10-18T10:46:06.582Z,64.7
2022-10-18T10:48:05.173Z,65.1
2022-10-18T10:50:11.492Z,57.4
2022-10-18T10:52:09.086Z,56.5
2022-10-18T10:54:07.781Z,56.6
2022-10-18T10:56:04.867Z,57.5
2022-10-18T10:58:02.469Z,59.7
2022-10-18T11:00:03.065Z,62.7
2022-10-18T11:02:20.927Z,60.0
2022-10-18T11:04:09.591Z,59.5
2022-10-18T11:06:02.399Z,61.2
2022-10-18T11:08:04.539Z,60.9
2022-10-18T11:12:13.618Z,59.6
2022-10-18T11:14:25.674Z,67.6
2022-10-18T11:16:11.695Z,66.2
2022-10-18T11:18:17.314Z,89.6
2022-10-18T11:20:12.383Z,84.1
2022-10-18T11:22:07.186Z,79.4
2022-10-18T11:24:03.276Z,79.9
2022-10-18T11:26:13.844Z,81.3
2022-10-18T11:28:10.023Z,99.4
2022-10-18T11:30:20.120Z,116.1
2022-10-18T11:32:12.114Z,102.9
2022-10-18T11:34:19.674Z,107.7
2022-10-18T11:36:09.092Z,108.6
2022-10-18T11:38:13.694Z,112.8
2022-10-18T11:40:18.663Z,114.4
2022-10-18T11:42:11.332Z,110.1
2022-10-18T11:44:04.866Z,94.6
2022-10-18T11:46:11.520Z,90.2
2022-10-18T11:48:18.259Z,90.4
2022-10-18T11:50:11.644Z,88.4
2022-10-18T11:52:12.721Z,88.9
2022-10-18T11:54:21.221Z,85.3
2022-10-18T11:56:12.517Z,93.3
2022-10-18T11:58:14.763Z,95.9
2022-10-18T12:00:15.841Z,100.0
2022-10-18T12:02:21.533Z,106.7
2022-10-18T12:04:07.977Z,108.1
2022-10-18T12:06:09.987Z,111.4
2022-10-18T12:08:08.564Z,114.4
2022-10-18T12:10:07.090Z,115.3
2022-10-18T12:12:08.919Z,111.6
2022-10-18T12:14:05.592Z,108.4
2022-10-18T12:16:05.130Z,110.6
2022-10-18T12:18:07.249Z,105.6
2022-10-18T12:20:07.680Z,95.7
2022-10-18T12:22:14.599Z,84.7
2022-10-18T12:24:07.368Z,79.0
2022-10-18T12:26:04.419Z,82.0
2022-10-18T12:28:07.816Z,77.9
2022-10-18T12:30:14.067Z,79.2
2022-10-18T12:32:07.008Z,77.0
2022-10-18T12:34:06.932Z,73.6
2022-10-18T12:36:12.609Z,70.7
2022-10-18T12:38:18.574Z,72.8
2022-10-18T12:40:13.379Z,74.2
2022-10-18T12:42:02.984Z,90.6
2022-10-18T12:44:06.182Z,85.0
2022-10-18T12:46:07.241Z,90.7
2022-10-18T12:48:05.975Z,89.6
2022-10-18T12:50:05.372Z,94.5
2022-10-18T12:52:05.767Z,90.8
2022-10-18T12:54:13.378Z,122.0
2022-10-18T12:56:23.176Z,105.8
2022-10-18T12:58:06.517Z,119.9
2022-10-18T13:00:02.338Z,120.5
2022-10-18T13:02:20.961Z,116.5
2022-10-18T13:04:02.266Z,128.1
2022-10-18T13:06:06.402Z,127.5
2022-10-18T13:08:21.281Z,139.1
2022-10-18T13:10:21.240Z,144.5
2022-10-18T13:12:21.222Z,140.3
2022-10-18T13:14:15.267Z,137.9
2022-10-18T13:16:07.658Z,133.0
2022-10-18T13:18:09.955Z,125.9
2022-10-18T13:20:26.006Z,118.5
2022-10-18T13:22:19.506Z,101.5
2022-10-18T13:24:18.001Z,83.9
2022-10-18T13:26:13.331Z,78.7
2022-10-18T13:28:15.762Z,71.2
2022-10-18T13:30:21.277Z,66.9
2022-10-18T13:34:22.250Z,64.5
2022-10-18T13:36:05.278Z,75.1
2022-10-18T13:38:03.610Z,72.8
2022-10-18T13:40:16.097Z,67.5
2022-10-18T13:42:21.438Z,68.0
2022-10-18T13:44:21.371Z,73.0
2022-10-18T13:46:06.205Z,68.2
2022-10-18T13:48:21.224Z,75.2
2022-10-18T13:50:20.958Z,70.6
2022-10-18T13:52:14.579Z,75.1
2022-10-18T13:54:10.335Z,80.5
2022-10-18T13:56:20.530Z,66.8
2022-10-18T13:58:14.498Z,84.5
2022-10-18T14:00:16.075Z,74.5
2022-10-18T14:02:36.349Z,78.5
2022-10-18T14:04:21.452Z,80.8
2022-10-18T14:06:09.613Z,80.3
2022-10-18T14:08:10.307Z,80.3
2022-10-18T14:10:04.485Z,74.2
2022-10-18T14:12:11.949Z,78.9
2022-10-18T14:14:09.000Z,78.9
2022-10-18T14:16:11.081Z,66.9
2022-10-18T14:18:07.691Z,67.4
2022-10-18T14:20:13.991Z,74.9
2022-10-18T14:22:11.311Z,70.6
2022-10-18T14:24:08.931Z,74.8
2022-10-18T14:26:08.591Z,72.8
2022-10-18T14:28:10.125Z,75.0
2022-10-18T14:30:15.231Z,78.0
2022-10-18T14:32:02.189Z,77.9
2022-10-18T14:34:03.200Z,71.0
2022-10-18T14:36:09.162Z,70.4
2022-10-18T14:38:02.970Z,76.0
2022-10-18T14:40:03.907Z,69.4
2022-10-18T14:42:02.940Z,70.3
2022-10-18T14:44:18.838Z,71.3
2022-10-18T14:46:15.581Z,75.4
2022-10-18T14:48:14.965Z,72.9
2022-10-18T14:50:02.326Z,82.0
2022-10-18T14:52:02.880Z,89.3
2022-10-18T14:54:02.667Z,105.1
2022-10-18T14:56:04.086Z,105.8
2022-10-18T14:58:03.422Z,88.4
2022-10-18T15:00:07.665Z,88.4
2022-10-18T15:02:09.877Z,83.8
2022-10-18T15:04:06.878Z,101.3
2022-10-18T15:06:05.420Z,105.7
2022-10-18T15:08:02.975Z,140.6
2022-10-18T15:10:04.692Z,182.6
2022-10-18T15:12:05.153Z,187.0
2022-10-18T15:14:06.475Z,204.3
2022-10-18T15:16:02.714Z,210.2
2022-10-18T15:18:04.746Z,219.5
2022-10-18T15:20:13.123Z,223.0
2022-10-18T15:22:31.418Z,224.6
2022-10-18T15:24:20.493Z,202.5
2022-10-18T15:26:06.564Z,177.5
2022-10-18T15:28:02.849Z,176.8
2022-10-18T15:30:08.063Z,181.6
2022-10-18T15:32:08.634Z,189.3
2022-10-18T15:34:11.319Z,189.9
2022-10-18T15:36:20.630Z,189.4
2022-10-18T15:38:16.095Z,204.3
2022-10-18T15:40:21.271Z,213.8
2022-10-18T15:42:03.342Z,220.4
2022-10-18T15:44:11.547Z,215.0
2022-10-18T15:46:06.823Z,227.1
2022-10-18T15:48:18.386Z,222.4
2022-10-18T15:50:02.716Z,237.4
2022-10-18T15:52:21.233Z,225.1
2022-10-18T15:54:02.199Z,224.9
2022-10-18T15:56:05.747Z,210.8
2022-10-18T15:58:04.730Z,202.0
2022-10-18T16:00:06.863Z,182.2
2022-10-18T16:02:02.382Z,223.7
2022-10-18T16:04:06.683Z,196.5
2022-10-18T16:06:06.778Z,177.2
2022-10-18T16:08:02.254Z,177.2
2022-10-18T16:10:03.296Z,188.9
2022-10-18T16:12:03.237Z,179.7
2022-10-18T16:14:02.239Z,196.0
2022-10-18T16:16:02.830Z,195.4
2022-10-18T16:18:02.205Z,247.1
2022-10-18T16:20:02.256Z,243.4
2022-10-18T16:22:06.307Z,215.3
2022-10-18T16:24:03.749Z,204.8
2022-10-18T16:26:02.236Z,222.1
2022-10-18T16:28:02.255Z,290.1
2022-10-18T16:30:03.477Z,304.7
2022-10-18T16:32:02.249Z,312.3
2022-10-18T16:34:02.700Z,295.2
2022-10-18T16:36:04.510Z,277.0
2022-10-18T16:38:02.882Z,235.8
2022-10-18T16:40:02.217Z,224.3
2022-10-18T16:42:02.195Z,341.2
2022-10-18T16:44:02.238Z,392.7
2022-10-18T16:46:04.580Z,377.2
2022-10-18T16:48:02.409Z,378.9
2022-10-18T16:50:07.742Z,413.6
2022-10-18T16:52:02.163Z,414.7
2022-10-18T16:54:02.774Z,397.7
2022-10-18T16:56:05.378Z,385.3
2022-10-18T16:58:02.392Z,400.9
2022-10-18T17:00:02.579Z,395.9
2022-10-18T17:02:06.039Z,388.3
2022-10-18T17:04:02.279Z,352.8
2022-10-18T17:06:02.793Z,361.1
2022-10-18T17:08:03.020Z,298.2
2022-10-18T17:10:02.604Z,306.9
2022-10-18T17:12:02.336Z,306.9
2022-10-18T17:14:02.208Z,365.3
2022-10-18T17:16:03.410Z,334.3
2022-10-18T17:18:03.486Z,322.0
2022-10-18T17:20:04.034Z,329.3
2022-10-18T17:22:02.823Z,331.6
2022-10-18T17:24:04.108Z,352.4
2022-10-18T17:26:14.998Z,361.1
2022-10-18T17:28:03.075Z,356.0
2022-10-18T17:30:02.325Z,355.5
2022-10-18T17:32:04.377Z,316.2
2022-10-18T17:34:03.161Z,309.0
2022-10-18T17:36:03.497Z,228.4
2022-10-18T17:38:02.223Z,188.8
2022-10-18T17:40:02.398Z,196.2
2022-10-18T17:42:02.216Z,231.5
2022-10-18T17:44:03.996Z,224.3
2022-10-18T17:46:02.442Z,196.7
2022-10-18T17:48:02.462Z,144.4
2022-10-18T17:50:02.858Z,110.8
2022-10-18T17:52:06.179Z,101.5
2022-10-18T17:54:02.190Z,186.2
2022-10-18T17:56:04.494Z,170.8
2022-10-18T17:58:02.340Z,187.4
2022-10-18T18:00:04.656Z,162.1
2022-10-18T18:02:02.237Z,154.1
2022-10-18T18:04:04.059Z,182.4
2022-10-18T18:06:13.160Z,199.6
2022-10-18T18:08:04.101Z,203.6
2022-10-18T18:10:02.369Z,211.2
2022-10-18T18:12:02.606Z,207.2
2022-10-18T18:14:07.923Z,203.1
2022-10-18T18:16:12.003Z,195.5
2022-10-18T18:18:02.521Z,184.6
2022-10-18T18:20:02.588Z,183.5
2022-10-18T18:22:03.300Z,171.7
2022-10-18T18:24:03.551Z,179.6
2022-10-18T18:26:02.225Z,179.5
2022-10-18T18:28:05.215Z,179.5
2022-10-18T18:30:02.397Z,166.2
2022-10-18T18:32:03.049Z,157.8
2022-10-18T18:34:02.464Z,172.2
2022-10-18T18:36:04.619Z,161.0
2022-10-18T18:40:02.217Z,191.6
2022-10-18T18:42:03.939Z,173.1
2022-10-18T18:44:05.743Z,186.9
2022-10-18T18:46:02.653Z,165.6
2022-10-18T18:48:02.238Z,168.4
2022-10-18T18:50:03.102Z,172.3
2022-10-18T18:52:02.225Z,194.5
2022-10-18T18:54:02.390Z,185.3
2022-10-18T18:56:03.508Z,211.0
2022-10-18T18:58:02.345Z,226.8
2022-10-18T19:00:02.481Z,196.8
2022-10-18T19:02:02.820Z,198.9
2022-10-18T19:04:03.406Z,196.8
2022-10-18T19:06:06.079Z,221.2
2022-10-18T19:08:04.233Z,224.7
2022-10-18T19:10:02.514Z,229.7
2022-10-18T19:12:02.759Z,228.1
2022-10-18T19:14:04.331Z,228.7
2022-10-18T19:16:19.274Z,223.4
2022-10-18T19:18:04.527Z,212.1
2022-10-18T19:20:02.925Z,169.2
2022-10-18T19:22:04.573Z,128.8
2022-10-18T19:24:04.178Z,128.3
2022-10-18T19:26:10.093Z,128.1
2022-10-18T19:28:02.148Z,136.8
2022-10-18T19:30:02.218Z,139.2
2022-10-18T19:32:06.740Z,134.1
2022-10-18T19:34:03.029Z,135.7
2022-10-18T19:36:03.645Z,126.6
2022-10-18T19:38:02.461Z,136.8
2022-10-18T19:40:02.262Z,130.6
2022-10-18T19:42:04.584Z,142.6
2022-10-18T19:44:02.995Z,134.0
2022-10-18T19:46:02.972Z,124.3
2022-10-18T19:48:02.648Z,195.4
2022-10-18T19:50:02.319Z,190.3
2022-10-18T19:52:02.986Z,180.6
2022-10-18T19:54:02.555Z,188.5
2022-10-18T19:56:04.892Z,165.8
2022-10-18T19:58:02.432Z,159.7
2022-10-18T20:00:03.552Z,137.0
2022-10-18T20:02:04.244Z,140.3
2022-10-18T20:04:04.025Z,146.3
2022-10-18T20:06:03.960Z,149.2
2022-10-18T20:08:03.370Z,160.7
2022-10-18T20:10:03.284Z,159.6
2022-10-18T20:12:02.261Z,158.2
2022-10-18T20:14:02.337Z,154.0
2022-10-18T20:16:04.386Z,155.9
2022-10-18T20:18:02.204Z,150.1
2022-10-18T20:20:02.285Z,152.2
2022-10-18T20:22:02.525Z,151.0
2022-10-18T20:24:02.499Z,153.9
2022-10-18T20:26:04.498Z,162.0
2022-10-18T20:28:02.196Z,157.6
2022-10-18T20:30:03.730Z,166.9
2022-10-18T20:32:03.030Z,177.2
2022-10-18T20:34:04.405Z,179.5
2022-10-18T20:36:04.426Z,198.0
2022-10-18T20:38:02.219Z,192.3
2022-10-18T20:40:02.809Z,202.4
2022-10-18T20:42:02.415Z,199.0
2022-10-18T20:44:04.547Z,199.6
2022-10-18T20:46:02.865Z,195.1
2022-10-18T20:48:02.223Z,195.1
2022-10-18T20:50:03.537Z,187.3
2022-10-18T20:52:02.388Z,194.4
2022-10-18T20:56:05.330Z,203.2
2022-10-18T20:58:02.211Z,212.3
2022-10-18T21:00:02.268Z,217.9
2022-10-18T21:02:02.372Z,221.5
2022-10-18T21:04:04.623Z,215.7
2022-10-18T21:06:08.966Z,227.5
2022-10-18T21:08:02.226Z,213.7
2022-10-18T21:10:02.201Z,216.4
2022-10-18T21:12:02.404Z,201.8
2022-10-18T21:14:03.942Z,225.9
2022-10-18T21:16:04.728Z,233.7
2022-10-18T21:18:02.348Z,213.5
2022-10-18T21:20:02.443Z,238.8
2022-10-18T21:22:02.319Z,254.2
2022-10-18T21:24:06.934Z,248.0
2022-10-18T21:26:02.811Z,248.7
2022-10-18T21:28:02.632Z,220.6
2022-10-18T21:30:02.919Z,231.0
2022-10-18T21:32:02.770Z,247.8
2022-10-18T21:34:05.299Z,254.3
2022-10-18T21:36:02.387Z,248.7
2022-10-18T21:38:02.283Z,246.4
2022-10-18T21:40:02.748Z,253.7
2022-10-18T21:42:02.202Z,251.4
2022-10-18T21:44:05.589Z,253.9
2022-10-18T21:46:03.047Z,247.5
2022-10-18T21:48:04.124Z,260.5
2022-10-18T21:50:02.709Z,250.1
2022-10-18T21:52:04.900Z,246.4
2022-10-18T21:54:02.223Z,252.1
2022-10-18T21:56:08.358Z,245.0
2022-10-18T21:58:02.863Z,250.3
2022-10-18T22:00:02.324Z,253.7
2022-10-18T22:02:02.616Z,253.7
2022-10-18T22:04:04.746Z,254.7
2022-10-18T22:06:04.772Z,250.1
2022-10-18T22:08:02.919Z,248.4
2022-10-18T22:10:02.229Z,244.1
2022-10-18T22:12:03.062Z,251.6
2022-10-18T22:14:02.809Z,253.0
2022-10-18T22:16:03.674Z,248.6
2022-10-18T22:18:02.269Z,235.7
2022-10-18T22:20:02.889Z,236.2
2022-10-18T22:22:02.204Z,249.5
2022-10-18T22:24:06.577Z,245.0
2022-10-18T22:26:04.838Z,239.7
2022-10-18T22:28:02.565Z,245.3
2022-10-18T22:30:02.209Z,237.3
2022-10-18T22:32:02.205Z,232.2
2022-10-18T22:34:05.160Z,240.1
2022-10-18T22:36:02.176Z,240.4
2022-10-18T22:38:02.416Z,232.2
2022-10-18T22:40:02.250Z,233.2
2022-10-18T22:42:04.796Z,224.9
2022-10-18T22:44:03.953Z,225.5
2022-10-18T22:46:02.547Z,223.9
2022-10-18T22:48:02.984Z,222.4
2022-10-18T22:50:02.229Z,215.2
2022-10-18T22:52:02.206Z,225.0
2022-10-18T22:54:02.715Z,222.2
2022-10-18T22:56:03.678Z,222.2
2022-10-18T22:58:02.193Z,223.5
2022-10-18T23:00:02.477Z,223.1
2022-10-18T23:02:02.339Z,221.0
2022-10-18T23:04:02.977Z,222.8
2022-10-18T23:06:03.923Z,213.1
2022-10-18T23:08:02.188Z,217.6
2022-10-18T23:10:02.228Z,216.8
2022-10-18T23:12:02.420Z,217.3
2022-10-18T23:14:03.808Z,209.8
2022-10-18T23:16:04.663Z,212.5
2022-10-18T23:18:03.034Z,207.0
2022-10-18T23:20:02.262Z,207.0
2022-10-18T23:22:02.187Z,208.2
2022-10-18T23:24:03.288Z,208.7
2022-10-18T23:26:04.938Z,203.9
2022-10-18T23:28:02.190Z,203.7
2022-10-18T23:30:02.436Z,204.4
2022-10-18T23:32:02.242Z,209.8
2022-10-18T23:34:05.086Z,205.2
2022-10-18T23:36:02.652Z,203.0
2022-10-18T23:38:02.273Z,201.8
2022-10-18T23:40:02.214Z,203.5
2022-10-18T23:42:02.454Z,210.4
2022-10-18T23:44:02.361Z,214.3
2022-10-18T23:46:02.328Z,212.3
2022-10-18T23:48:02.268Z,211.2
2022-10-18T23:50:02.240Z,209.0
2022-10-18T23:52:02.207Z,214.1
2022-10-18T23:54:02.983Z,222.9
2022-10-18T23:56:05.794Z,217.8
